createdAt,value
2022-09-27T00:01:00.886Z,93.60
2022-09-27T00:03:46.148Z,93.70
2022-09-27T00:06:32.212Z,93.70
2022-09-27T00:09:17.852Z,93.20
2022-09-27T00:12:03.436Z,93.20
2022-09-27T00:14:48.792Z,93.40
2022-09-27T00:17:34.288Z,93.40
2022-09-27T00:20:20.882Z,93.60
2022-09-27T00:23:06.505Z,93.40
2022-09-27T00:26:04.674Z,93.20
2022-09-27T00:28:50.100Z,92.90
2022-09-27T00:31:36.382Z,92.60
2022-09-27T00:34:24.846Z,92.60
2022-09-27T00:37:11.719Z,92.60
2022-09-27T00:39:56.924Z,92.80
2022-09-27T00:42:42.687Z,93.30
2022-09-27T00:45:28.152Z,93.60
2022-09-27T00:48:17.340Z,93.90
2022-09-27T00:51:05.972Z,93.90
2022-09-27T00:53:54.976Z,93.80
2022-09-27T00:56:41.574Z,93.70
2022-09-27T00:59:32.887Z,93.60
2022-09-27T01:02:39.735Z,93.50
2022-09-27T01:05:28.141Z,93.30
2022-09-27T01:08:13.297Z,93.30
2022-09-27T01:11:22.951Z,93.20
2022-09-27T01:14:41.267Z,93.20
2022-09-27T01:17:58.760Z,93.40
2022-09-27T01:21:20.388Z,93.60
2022-09-27T01:24:20.984Z,93.80
2022-09-27T01:27:33.508Z,93.80
2022-09-27T01:30:47.822Z,93.80
2022-09-27T01:33:42.360Z,93.60
2022-09-27T01:36:54.257Z,93.70
2022-09-27T01:39:48.600Z,93.50
2022-09-27T01:43:18.179Z,93.70
2022-09-27T01:46:14.137Z,93.70
2022-09-27T01:49:29.045Z,93.50
2022-09-27T01:52:19.543Z,93.30
2022-09-27T01:55:09.776Z,93.20
2022-09-27T01:58:34.598Z,92.90
2022-09-27T02:01:22.280Z,92.70
2022-09-27T02:04:13.924Z,92.70
2022-09-27T02:07:57.780Z,92.80
2022-09-27T02:10:46.218Z,92.90
2022-09-27T02:13:53.624Z,92.80
2022-09-27T02:17:08.852Z,92.90
2022-09-27T02:20:18.627Z,93.00
2022-09-27T02:23:25.755Z,92.90
2022-09-27T02:26:29.083Z,92.80
2022-09-27T02:29:26.754Z,93.00
2022-09-27T02:32:13.441Z,93.10
2022-09-27T02:35:03.904Z,93.30
2022-09-27T02:37:50.304Z,93.50
2022-09-27T02:40:42.709Z,93.20
2022-09-27T02:43:32.427Z,92.70
2022-09-27T02:46:33.501Z,92.40
2022-09-27T02:49:46.747Z,92.10
2022-09-27T02:53:35.880Z,91.90
2022-09-27T02:56:57.791Z,91.60
2022-09-27T03:00:14.210Z,91.60
2022-09-27T03:03:20.931Z,91.70
2022-09-27T03:06:15.487Z,91.70
2022-09-27T03:09:01.092Z,91.60
2022-09-27T03:11:46.322Z,91.70
2022-09-27T03:14:33.067Z,91.70
2022-09-27T03:17:37.583Z,91.80
2022-09-27T03:20:41.213Z,92.00
2022-09-27T03:23:29.104Z,92.10
2022-09-27T03:26:15.000Z,92.10
2022-09-27T03:29:00.109Z,92.50
2022-09-27T03:31:45.572Z,92.20
2022-09-27T03:34:52.149Z,92.40
2022-09-27T03:37:37.860Z,92.70
2022-09-27T03:40:23.464Z,92.70
2022-09-27T03:43:11.803Z,92.70
2022-09-27T03:45:57.126Z,92.70
2022-09-27T03:48:42.634Z,92.70
2022-09-27T03:51:28.374Z,92.80
2022-09-27T03:54:13.624Z,92.70
2022-09-27T03:56:59.081Z,92.80
2022-09-27T03:59:45.503Z,92.90
2022-09-27T04:02:57.367Z,93.00
2022-09-27T04:05:42.975Z,93.30
2022-09-27T04:08:36.580Z,93.30
2022-09-27T04:11:23.784Z,93.30
2022-09-27T04:14:09.878Z,93.40
2022-09-27T04:17:05.446Z,93.40
2022-09-27T04:20:11.529Z,93.20
2022-09-27T04:22:59.359Z,93.20
2022-09-27T04:25:44.499Z,93.30
2022-09-27T04:28:38.540Z,93.40
2022-09-27T04:31:24.095Z,93.20
2022-09-27T04:34:46.090Z,93.20
2022-09-27T04:37:36.858Z,93.40
2022-09-27T04:40:23.404Z,93.60
2022-09-27T04:43:09.659Z,93.80
2022-09-27T04:45:55.602Z,94.00
2022-09-27T04:48:41.234Z,94.20
2022-09-27T04:51:27.128Z,94.30
2022-09-27T04:54:12.806Z,94.50
2022-09-27T04:57:06.483Z,94.80
2022-09-27T04:59:54.989Z,94.80
2022-09-27T05:02:40.489Z,94.80
2022-09-27T05:05:35.500Z,95.00
2022-09-27T05:08:21.072Z,95.00
2022-09-27T05:11:26.790Z,95.00
2022-09-27T05:14:31.233Z,95.10
2022-09-27T05:17:27.076Z,95.20
2022-09-27T05:20:39.915Z,95.30
2022-09-27T05:23:33.475Z,95.20
2022-09-27T05:26:19.051Z,95.40
2022-09-27T05:29:04.673Z,95.40
2022-09-27T05:31:49.918Z,95.40
2022-09-27T05:34:35.841Z,95.50
2022-09-27T05:37:21.419Z,95.60
2022-09-27T05:40:22.490Z,95.50
2022-09-27T05:43:17.135Z,95.30
2022-09-27T05:46:05.734Z,95.20
2022-09-27T05:48:51.398Z,95.30
2022-09-27T05:51:37.096Z,95.30
2022-09-27T05:54:23.604Z,95.30
2022-09-27T05:57:09.215Z,95.30
2022-09-27T06:00:02.696Z,95.40
2022-09-27T06:03:03.259Z,95.40
2022-09-27T06:06:07.813Z,95.30
2022-09-27T06:09:01.401Z,95.40
2022-09-27T06:11:47.333Z,95.30
2022-09-27T06:14:35.007Z,95.30
2022-09-27T06:17:43.670Z,95.40
2022-09-27T06:20:35.408Z,95.40
2022-09-27T06:23:23.811Z,95.40
2022-09-27T06:26:21.175Z,95.30
2022-09-27T06:29:42.156Z,95.40
2022-09-27T06:32:36.672Z,95.50
2022-09-27T06:35:49.155Z,95.50
2022-09-27T06:38:35.982Z,95.70
2022-09-27T06:41:32.568Z,95.80
2022-09-27T06:44:29.602Z,95.90
2022-09-27T06:47:48.544Z,96.00
2022-09-27T06:50:51.032Z,96.10
2022-09-27T06:53:40.379Z,96.10
2022-09-27T06:56:26.514Z,96.20
2022-09-27T06:59:33.612Z,96.10
2022-09-27T07:02:40.337Z,96.10
2022-09-27T07:05:56.957Z,96.20
2022-09-27T07:09:00.946Z,96.20
2022-09-27T07:11:46.927Z,96.00
2022-09-27T07:14:34.600Z,96.00
2022-09-27T07:17:20.903Z,95.90
2022-09-27T07:20:08.494Z,95.70
2022-09-27T07:22:54.206Z,95.40
2022-09-27T07:25:41.520Z,95.00
2022-09-27T07:28:27.211Z,95.10
2022-09-27T07:31:13.263Z,94.50
2022-09-27T07:33:59.311Z,94.70
2022-09-27T07:36:44.789Z,95.00
2022-09-27T07:39:33.539Z,95.20
2022-09-27T07:42:21.020Z,95.50
2022-09-27T07:45:11.405Z,95.60
2022-09-27T07:48:24.536Z,95.60
2022-09-27T07:51:29.514Z,95.60
2022-09-27T07:54:24.779Z,95.50
2022-09-27T07:57:32.711Z,95.80
2022-09-27T08:00:20.238Z,96.00
2022-09-27T08:03:08.114Z,96.00
2022-09-27T08:05:53.461Z,95.90
2022-09-27T08:08:39.638Z,95.80
2022-09-27T08:11:25.352Z,96.10
2022-09-27T08:14:10.827Z,96.00
2022-09-27T08:16:58.135Z,96.10
2022-09-27T08:19:49.885Z,96.30
2022-09-27T08:22:55.018Z,96.70
2022-09-27T08:25:53.950Z,96.60
2022-09-27T08:28:48.779Z,96.30
2022-09-27T08:31:41.518Z,96.30
2022-09-27T08:34:29.064Z,96.00
2022-09-27T08:37:14.561Z,95.30
2022-09-27T08:40:00.527Z,95.40
2022-09-27T08:42:58.454Z,95.30
2022-09-27T08:46:10.232Z,95.30
2022-09-27T08:49:21.160Z,95.20
2022-09-27T08:52:12.560Z,95.00
2022-09-27T08:55:04.355Z,95.30
2022-09-27T08:57:55.423Z,95.20
2022-09-27T09:00:42.531Z,95.30
2022-09-27T09:03:31.175Z,95.20
2022-09-27T09:06:27.545Z,95.30
2022-09-27T09:09:48.415Z,95.30
2022-09-27T09:12:53.221Z,95.30
2022-09-27T09:16:16.772Z,95.20
2022-09-27T09:19:22.114Z,95.30
2022-09-27T09:22:30.885Z,95.70
2022-09-27T09:25:29.463Z,95.80
2022-09-27T09:28:32.329Z,95.80
2022-09-27T09:31:40.209Z,95.60
2022-09-27T09:34:39.508Z,95.50
2022-09-27T09:37:47.908Z,95.50
2022-09-27T09:40:42.599Z,95.20
2022-09-27T09:43:38.535Z,95.10
2022-09-27T09:46:44.906Z,94.90
2022-09-27T09:49:44.587Z,95.00
2022-09-27T09:52:43.241Z,95.00
2022-09-27T09:55:34.753Z,94.60
2022-09-27T09:58:28.422Z,94.30
2022-09-27T10:01:23.695Z,94.70
2022-09-27T10:04:19.880Z,94.30
2022-09-27T10:07:04.981Z,94.00
2022-09-27T10:09:57.436Z,94.20
2022-09-27T10:13:03.759Z,94.20
2022-09-27T10:16:04.936Z,93.90
2022-09-27T10:18:57.747Z,93.90
2022-09-27T10:21:46.591Z,93.70
2022-09-27T10:24:57.001Z,93.60
2022-09-27T10:28:03.847Z,93.70
2022-09-27T10:30:57.659Z,93.90
2022-09-27T10:33:55.416Z,93.80
2022-09-27T10:36:42.378Z,93.90
2022-09-27T10:39:28.450Z,94.40
2022-09-27T10:42:35.431Z,94.60
2022-09-27T10:45:39.666Z,95.10
2022-09-27T10:48:30.031Z,95.20
2022-09-27T10:51:25.212Z,95.40
2022-09-27T10:54:46.294Z,95.10
2022-09-27T10:57:32.378Z,95.10
2022-09-27T11:00:34.332Z,95.30
2022-09-27T11:03:21.053Z,95.70
2022-09-27T11:06:23.069Z,95.70
2022-09-27T11:09:19.548Z,95.70
2022-09-27T11:12:13.389Z,95.90
2022-09-27T11:15:06.065Z,96.70
2022-09-27T11:18:01.329Z,96.90
2022-09-27T11:20:53.831Z,97.30
2022-09-27T11:24:25.161Z,96.60
2022-09-27T11:27:27.277Z,96.10
2022-09-27T11:30:23.842Z,96.00
2022-09-27T11:33:59.579Z,96.10
2022-09-27T11:36:57.070Z,96.20
2022-09-27T11:40:04.592Z,96.10
2022-09-27T11:42:59.122Z,96.30
2022-09-27T11:46:38.527Z,96.50
2022-09-27T11:49:48.380Z,96.40
2022-09-27T11:53:27.863Z,96.20
2022-09-27T11:56:19.174Z,96.10
2022-09-27T11:59:10.478Z,96.30
2022-09-27T12:02:10.542Z,95.60
2022-09-27T12:05:17.555Z,95.70
2022-09-27T12:08:22.482Z,95.30
2022-09-27T12:11:21.159Z,94.60
2022-09-27T12:14:30.452Z,94.40
2022-09-27T12:17:25.549Z,94.70
2022-09-27T12:20:27.684Z,94.30
2022-09-27T12:23:36.716Z,93.70
2022-09-27T12:26:44.036Z,93.60
2022-09-27T12:29:34.916Z,94.30
2022-09-27T12:32:38.555Z,94.90
2022-09-27T12:35:30.884Z,92.90
2022-09-27T12:38:21.961Z,92.80
2022-09-27T12:41:11.331Z,94.40
2022-09-27T12:44:12.050Z,93.60
2022-09-27T12:47:21.924Z,92.60
2022-09-27T12:50:38.218Z,92.30
2022-09-27T12:53:49.216Z,90.10
2022-09-27T12:56:53.495Z,88.20
2022-09-27T13:00:26.002Z,83.80
2022-09-27T13:03:26.726Z,76.10
2022-09-27T13:06:55.681Z,76.80
2022-09-27T13:10:14.846Z,76.40
2022-09-27T13:13:01.483Z,76.90
2022-09-27T13:15:48.283Z,77.70
2022-09-27T13:18:36.618Z,78.60
2022-09-27T13:21:47.741Z,79.50
2022-09-27T13:24:52.351Z,77.30
2022-09-27T13:28:31.015Z,77.30
2022-09-27T13:31:47.569Z,77.90
2022-09-27T13:34:41.257Z,74.90
2022-09-27T13:38:00.535Z,77.50
2022-09-27T13:40:51.064Z,78.30
2022-09-27T13:44:13.791Z,78.10
2022-09-27T13:47:33.009Z,78.00
2022-09-27T13:50:53.338Z,78.00
2022-09-27T13:53:46.517Z,78.20
2022-09-27T13:56:46.697Z,76.80
2022-09-27T13:59:51.859Z,78.10
2022-09-27T14:03:16.397Z,77.60
2022-09-27T14:06:17.675Z,76.10
2022-09-27T14:09:08.110Z,73.90
2022-09-27T14:12:31.348Z,74.20
2022-09-27T14:15:24.588Z,72.50
2022-09-27T14:18:14.731Z,73.20
2022-09-27T14:21:32.607Z,70.60
2022-09-27T14:24:36.498Z,71.50
2022-09-27T14:27:40.484Z,68.20
2022-09-27T14:30:49.315Z,68.80
2022-09-27T14:34:08.845Z,66.30
2022-09-27T14:37:14.617Z,65.40
2022-09-27T14:40:23.506Z,65.10
2022-09-27T14:43:18.513Z,65.90
2022-09-27T14:46:07.236Z,66.60
2022-09-27T14:48:53.139Z,65.70
2022-09-27T14:51:38.634Z,66.30
2022-09-27T14:54:30.533Z,66.70
2022-09-27T14:57:17.416Z,67.50
2022-09-27T15:00:25.679Z,68.00
2022-09-27T15:03:32.340Z,69.10
2022-09-27T15:06:28.087Z,70.40
2022-09-27T15:09:17.349Z,72.90
2022-09-27T15:12:05.326Z,74.60
2022-09-27T15:14:54.098Z,75.90
2022-09-27T15:17:47.223Z,77.20
2022-09-27T15:20:38.436Z,78.40
2022-09-27T15:23:29.746Z,79.40
2022-09-27T15:26:27.443Z,80.10
2022-09-27T15:29:21.179Z,81.40
2022-09-27T15:32:08.239Z,82.90
2022-09-27T15:34:55.291Z,83.40
2022-09-27T15:37:41.704Z,83.90
2022-09-27T15:40:49.774Z,84.20
2022-09-27T15:43:49.983Z,83.60
2022-09-27T15:46:42.198Z,84.00
2022-09-27T15:49:33.474Z,83.90
2022-09-27T15:52:47.294Z,84.00
2022-09-27T15:55:35.654Z,84.30
2022-09-27T15:58:22.008Z,84.70
2022-09-27T16:01:07.242Z,85.10
2022-09-27T16:03:52.498Z,85.50
2022-09-27T16:06:38.545Z,85.70
2022-09-27T16:09:23.788Z,86.10
2022-09-27T16:12:09.223Z,86.40
2022-09-27T16:14:57.771Z,86.60
2022-09-27T16:17:43.591Z,86.80
2022-09-27T16:20:29.028Z,87.00
2022-09-27T16:23:14.361Z,87.10
2022-09-27T16:25:59.846Z,87.40
2022-09-27T16:28:45.291Z,87.90
2022-09-27T16:31:30.480Z,88.10
2022-09-27T16:34:16.395Z,88.30
2022-09-27T16:37:04.979Z,88.50
2022-09-27T16:39:56.616Z,88.70
2022-09-27T16:42:43.171Z,89.40
2022-09-27T16:45:33.606Z,90.00
2022-09-27T16:48:19.002Z,90.30
2022-09-27T16:51:40.135Z,90.40
2022-09-27T16:54:28.138Z,90.50
2022-09-27T16:57:16.414Z,90.90
2022-09-27T17:00:02.147Z,90.80
2022-09-27T17:02:48.436Z,90.70
2022-09-27T17:05:33.673Z,90.70
2022-09-27T17:08:19.381Z,90.80
2022-09-27T17:11:04.605Z,91.00
2022-09-27T17:13:55.406Z,90.90
2022-09-27T17:16:40.463Z,91.00
2022-09-27T17:19:25.808Z,91.10
2022-09-27T17:22:11.208Z,91.10
2022-09-27T17:24:57.812Z,91.30
2022-09-27T17:27:43.020Z,91.30
2022-09-27T17:30:28.388Z,91.50
2022-09-27T17:33:17.040Z,91.60
2022-09-27T17:36:02.855Z,91.80
2022-09-27T17:38:50.188Z,91.80
2022-09-27T17:41:40.271Z,92.00
2022-09-27T17:44:27.013Z,92.10
2022-09-27T17:47:30.711Z,92.30
2022-09-27T17:50:25.082Z,92.60
2022-09-27T17:53:10.117Z,92.70
2022-09-27T17:56:01.233Z,92.80
2022-09-27T17:58:48.105Z,92.90
2022-09-27T18:01:33.689Z,93.00
2022-09-27T18:04:22.052Z,93.30
2022-09-27T18:07:12.927Z,93.40
2022-09-27T18:09:58.442Z,93.40
2022-09-27T18:12:43.704Z,93.60
2022-09-27T18:15:29.519Z,93.60
2022-09-27T18:18:14.740Z,93.70
2022-09-27T18:21:13.926Z,94.00
2022-09-27T18:24:00.774Z,93.70
2022-09-27T18:26:48.965Z,93.90
2022-09-27T18:29:34.544Z,93.70
2022-09-27T18:32:19.975Z,93.90
2022-09-27T18:35:06.856Z,94.30
2022-09-27T18:37:52.007Z,94.60
2022-09-27T18:40:55.543Z,95.10
2022-09-27T18:43:43.164Z,95.40
2022-09-27T18:46:36.270Z,95.70
2022-09-27T18:49:26.190Z,95.90
2022-09-27T18:52:13.593Z,95.80
2022-09-27T18:54:59.347Z,95.90
2022-09-27T18:57:44.450Z,96.10
2022-09-27T19:00:30.000Z,96.40
2022-09-27T19:03:16.412Z,96.40
2022-09-27T19:06:07.969Z,96.60
2022-09-27T19:08:58.670Z,96.60
2022-09-27T19:11:43.711Z,96.50
2022-09-27T19:14:32.051Z,96.60
2022-09-27T19:17:17.289Z,96.60
2022-09-27T19:20:04.556Z,96.60
2022-09-27T19:22:49.695Z,96.50
2022-09-27T19:25:39.715Z,96.40
2022-09-27T19:28:28.611Z,96.70
2022-09-27T19:31:20.300Z,96.50
2022-09-27T19:34:05.970Z,96.30
2022-09-27T19:36:51.236Z,96.30
2022-09-27T19:39:36.828Z,96.30
2022-09-27T19:42:22.580Z,96.30
2022-09-27T19:45:11.653Z,96.30
2022-09-27T19:47:57.293Z,96.40
2022-09-27T19:50:42.615Z,96.50
2022-09-27T19:53:33.337Z,96.50
2022-09-27T19:56:19.363Z,96.70
2022-09-27T19:59:07.700Z,96.70
2022-09-27T20:01:53.177Z,96.80
2022-09-27T20:04:38.707Z,96.90
2022-09-27T20:07:24.124Z,97.00
2022-09-27T20:10:13.443Z,97.10
2022-09-27T20:12:59.273Z,97.10
2022-09-27T20:15:44.769Z,97.10
2022-09-27T20:18:30.295Z,97.10
2022-09-27T20:21:17.254Z,97.00
2022-09-27T20:24:04.802Z,97.10
2022-09-27T20:26:50.763Z,97.20
2022-09-27T20:29:36.406Z,97.20
2022-09-27T20:32:27.797Z,97.20
2022-09-27T20:35:13.274Z,97.20
2022-09-27T20:37:58.836Z,97.30
2022-09-27T20:40:51.808Z,97.30
2022-09-27T20:43:38.505Z,97.20
2022-09-27T20:46:25.250Z,97.10
2022-09-27T20:49:16.065Z,97.20
2022-09-27T20:52:04.502Z,97.10
2022-09-27T20:54:50.110Z,97.20
2022-09-27T20:57:56.521Z,97.40
2022-09-27T21:00:41.181Z,97.50
2022-09-27T21:03:26.428Z,97.80
2022-09-27T21:06:16.129Z,97.80
2022-09-27T21:09:05.549Z,97.90
2022-09-27T21:11:54.271Z,97.70
2022-09-27T21:14:43.519Z,97.30
2022-09-27T21:17:31.619Z,97.10
2022-09-27T21:20:16.834Z,97.10
2022-09-27T21:23:02.375Z,97.00
2022-09-27T21:25:50.530Z,96.90
2022-09-27T21:28:47.128Z,96.80
2022-09-27T21:31:34.220Z,96.60
2022-09-27T21:34:22.592Z,96.60
2022-09-27T21:37:08.511Z,96.70
2022-09-27T21:39:54.911Z,96.70
2022-09-27T21:42:40.644Z,96.50
2022-09-27T21:45:25.859Z,96.50
2022-09-27T21:48:11.662Z,96.40
2022-09-27T21:51:07.292Z,96.30
2022-09-27T21:57:05.872Z,96.20
2022-09-27T21:59:51.435Z,96.10
2022-09-27T22:02:37.028Z,96.10
2022-09-27T22:05:22.420Z,96.10
2022-09-27T22:08:07.943Z,96.20
2022-09-27T22:10:53.585Z,96.30
2022-09-27T22:13:38.826Z,96.20
2022-09-27T22:16:26.774Z,96.20
2022-09-27T22:19:14.669Z,96.30
2022-09-27T22:22:00.268Z,96.40
2022-09-27T22:24:45.991Z,96.40
2022-09-27T22:27:31.515Z,96.50
2022-09-27T22:30:17.975Z,96.30
2022-09-27T22:33:03.461Z,96.40
2022-09-27T22:35:49.136Z,96.30
2022-09-27T22:38:34.727Z,96.40
2022-09-27T22:41:20.988Z,96.50
2022-09-27T22:44:08.884Z,96.70
2022-09-27T22:46:54.436Z,96.70
2022-09-27T22:49:40.079Z,96.50
2022-09-27T22:52:25.875Z,96.30
2022-09-27T22:55:11.534Z,96.00
2022-09-27T22:57:56.964Z,96.00
2022-09-27T23:00:42.585Z,96.10
2022-09-27T23:03:28.249Z,96.10
2022-09-27T23:06:15.468Z,96.20
2022-09-27T23:09:02.617Z,96.30
2022-09-27T23:11:48.094Z,96.40
2022-09-27T23:14:33.250Z,96.30
2022-09-27T23:17:20.385Z,96.10
2022-09-27T23:20:06.206Z,96.00
2022-09-27T23:22:51.977Z,96.10
2022-09-27T23:25:37.566Z,96.10
2022-09-27T23:28:26.174Z,96.10
2022-09-27T23:31:14.027Z,96.20
2022-09-27T23:34:03.626Z,96.40
2022-09-27T23:36:49.612Z,96.50
2022-09-27T23:39:35.051Z,96.50
2022-09-27T23:42:20.905Z,96.80
2022-09-27T23:45:06.821Z,96.50
2022-09-27T23:47:52.792Z,96.50
2022-09-27T23:50:38.488Z,96.50
2022-09-27T23:53:24.619Z,96.40
2022-09-27T23:56:17.414Z,96.30
2022-09-27T23:59:03.114Z,96.40
